Morgantown Municipal Walter L. Bill Hart Field Morgantown US
ICAO: KMGW
IATA: MGW
Category: Medium
Scheduled Services: Yes

Elevation: 1248 ft
TransAlt. 18000 ft.

Airport Communications:
CLARKSBURG APP/DEP:121.15
ASOS:120.675
CTAF:125.1
GND:121.7
ELKINS RDO:122.6
TWR:125.1
UNICOM:122.95

KMGW Zoom In..

If you have problems with the map follow the link
https://www.worldairports.se/pages/airport.php?
ICAO=KMGW

Runways:

(A) RW 18 length 5199 ft width 150 ft
ILS 108.50 / hdg 181

(B) RW 36 length 5199 ft width 150 ft
---- / hdg 1

Location; KMGW
Day. 22 / Time. 16.53 Zulu
* Altimeter: 30.39
* Temperature: 04° c. 39.2°f.
* Wind from: 060° Speed 03 kn.
Dewpoint: -03° c.
Visibility: 10 Statute Miles.
Clouds: Clear (automated report).

KMGW 221653Z 06003KT 10SM CLR 04/M03 A3039 RMK AO2 SLP301 T00441028


Wind From 060°
Speed 03 kn.

 
 
jpsmedia.com for Web Design worldairports.se 2019   terms of use